Time;durP1;ratioP1;P1;durP2;ratioP2;P2;SDS_P1;SDS_P2;PMS_P1;PMS_P2;Temp;Humidity;BMP_temperature;BMP_pressure;BME280_temperature;BME280_humidity;BME280_pressure;Samples;Min_cycle;Max_cycle;Signal;HPM_P1;HPM_P2
2021/06/04 00:01:23;;;;;;;15.43;10.70;;;19.10;90.80;;;;;;4986799;28;20391;-76
2021/06/04 00:03:49;;;;;;;14.45;10.18;;;19.00;91.30;;;;;;4987898;28;20395;-76
2021/06/04 00:06:15;;;;;;;14.15;10.70;;;19.00;91.00;;;;;;4970010;28;20490;-76
2021/06/04 00:08:41;;;;;;;16.52;11.52;;;19.00;91.30;;;;;;4987303;28;20474;-76
2021/06/04 00:11:17;;;;;;;17.67;12.35;;;19.00;91.50;;;;;;4987860;28;20382;-76
2021/06/04 00:13:49;;;;;;;18.60;13.17;;;18.80;92.50;;;;;;4987559;28;20428;-75
2021/06/04 00:16:29;;;;;;;20.80;14.38;;;18.70;92.80;;;;;;4970821;28;20423;-76
2021/06/04 00:18:56;;;;;;;15.65;11.55;;;18.70;93.00;;;;;;4990872;28;20383;-76
2021/06/04 00:21:26;;;;;;;18.20;14.23;;;18.80;92.20;;;;;;4990795;28;20379;-76
2021/06/04 00:23:53;;;;;;;20.27;15.20;;;18.80;92.40;;;;;;4990809;28;20894;-76
2021/06/04 00:26:19;;;;;;;24.92;16.23;;;18.80;92.40;;;;;;4973495;28;20395;-76
2021/06/04 00:28:45;;;;;;;21.75;15.05;;;18.70;93.00;;;;;;4990045;28;20751;-76
2021/06/04 00:31:11;;;;;;;21.70;16.20;;;18.80;92.60;;;;;;4973560;28;20386;-76
2021/06/04 00:33:37;;;;;;;24.83;16.42;;;18.70;93.00;;;;;;4990750;28;20387;-76
2021/06/04 00:36:05;;;;;;;22.17;16.85;;;18.70;93.00;;;;;;4990208;28;20976;-76
2021/06/04 00:38:30;;;;;;;24.35;18.60;;;18.80;92.70;;;;;;4990535;28;20743;-76
2021/06/04 00:41:01;;;;;;;21.70;17.42;;;18.70;93.10;;;;;;4973126;28;20399;-76
2021/06/04 00:43:27;;;;;;;20.20;16.35;;;18.60;93.40;;;;;;5005231;28;22633;-76
2021/06/04 00:45:56;;;;;;;19.87;15.63;;;18.70;92.80;;;;;;4990578;28;20746;-76
2021/06/04 00:48:23;;;;;;;24.75;17.40;;;18.70;92.80;;;;;;4990288;28;20741;-76
2021/06/04 00:50:59;;;;;;;28.60;20.70;;;18.90;92.40;;;;;;4990093;28;20494;-76
2021/06/04 00:53:26;;;;;;;25.92;18.67;;;18.90;92.80;;;;;;4973332;28;20391;-76
2021/06/04 00:55:53;;;;;;;25.30;17.45;;;18.70;93.40;;;;;;4972729;28;20416;-76
2021/06/04 00:58:32;;;;;;;24.03;18.03;;;18.70;93.10;;;;;;4972405;28;20391;-75
2021/06/04 01:00:59;;;;;;;22.80;16.38;;;18.60;93.40;;;;;;4972916;28;20460;-76
2021/06/04 01:03:28;;;;;;;25.07;19.27;;;18.80;92.10;;;;;;4989951;28;20387;-76
2021/06/04 01:06:05;;;;;;;27.20;19.60;;;18.80;92.70;;;;;;4972951;28;20395;-76
2021/06/04 01:08:51;;;;;;;21.40;17.02;;;18.80;93.20;;;;;;4989537;28;20387;-76
2021/06/04 01:11:45;;;;;;;24.92;19.27;;;18.80;92.80;;;;;;4972882;28;20481;-76
2021/06/04 01:14:41;;;;;;;25.90;18.23;;;18.60;93.70;;;;;;4990393;28;20426;-76
2021/06/04 01:17:34;;;;;;;20.47;15.33;;;18.80;93.40;;;;;;5073796;28;20782;-76
2021/06/04 01:20:18;;;;;;;21.58;17.00;;;18.90;92.20;;;;;;4990275;28;20849;-76
2021/06/04 01:23:01;;;;;;;21.77;17.88;;;18.90;92.60;;;;;;4990094;28;20466;-76
2021/06/04 01:25:46;;;;;;;24.42;16.65;;;18.80;92.90;;;;;;4989940;28;20810;-76
2021/06/04 01:28:28;;;;;;;21.98;16.75;;;18.70;93.30;;;;;;5073587;28;20807;-76
2021/06/04 01:31:03;;;;;;;19.98;15.73;;;18.60;93.70;;;;;;4989946;28;20383;-76
2021/06/04 01:33:37;;;;;;;20.13;14.47;;;18.60;93.50;;;;;;4990267;28;20402;-76
2021/06/04 01:36:03;;;;;;;19.95;16.15;;;18.60;93.00;;;;;;4972461;28;20696;-76
2021/06/04 01:38:35;;;;;;;20.87;16.23;;;18.80;92.60;;;;;;4989310;28;20395;-76
2021/06/04 01:41:05;;;;;;;25.42;18.65;;;18.70;93.30;;;;;;4972221;28;20782;-76
2021/06/04 01:43:43;;;;;;;18.75;15.25;;;18.60;94.10;;;;;;4972318;28;20474;-76
2021/06/04 01:46:20;;;;;;;23.45;18.42;;;18.70;93.60;;;;;;4989890;28;20602;-76
2021/06/04 01:48:49;;;;;;;22.02;17.75;;;18.60;93.70;;;;;;4989105;28;20434;-76
2021/06/04 01:51:33;;;;;;;23.13;17.90;;;18.50;94.40;;;;;;4972312;28;20395;-76
2021/06/04 01:54:09;;;;;;;19.30;15.02;;;18.50;94.20;;;;;;4989322;28;20394;-76
2021/06/04 01:56:44;;;;;;;19.80;13.63;;;18.50;93.90;;;;;;4989255;28;20446;-76
2021/06/04 01:59:21;;;;;;;14.73;12.88;;;18.60;93.00;;;;;;4989817;28;20397;-76
2021/06/04 02:01:49;;;;;;;15.55;13.32;;;18.70;92.70;;;;;;4989587;28;20800;-76
2021/06/04 02:04:20;;;;;;;18.58;15.10;;;18.70;92.30;;;;;;4989601;28;20402;-76
2021/06/04 02:06:46;;;;;;;17.70;15.80;;;18.70;93.00;;;;;;4971291;28;20775;-77
2021/06/04 02:09:14;;;;;;;21.40;17.17;;;18.60;93.70;;;;;;4989590;28;20375;-76
2021/06/04 02:11:41;;;;;;;15.60;12.52;;;18.40;94.70;;;;;;4971309;28;20430;-76
2021/06/04 02:14:12;;;;;;;17.75;13.35;;;18.40;93.60;;;;;;4989628;28;20394;-76
2021/06/04 02:17:20;;;;;;;16.90;13.93;;;18.60;93.20;;;;;;4988601;28;20411;-76
2021/06/04 02:19:59;;;;;;;15.93;13.30;;;18.70;92.40;;;;;;4989139;28;20441;-76
2021/06/04 02:22:28;;;;;;;15.30;13.67;;;18.60;92.70;;;;;;5073222;28;20403;-77
2021/06/04 02:25:12;;;;;;;17.92;14.68;;;18.60;92.70;;;;;;4989014;28;20798;-76
2021/06/04 02:27:41;;;;;;;17.40;14.25;;;18.60;92.80;;;;;;4988696;28;20401;-76
2021/06/04 02:30:16;;;;;;;16.23;12.68;;;18.60;92.30;;;;;;4971444;28;20397;-76
2021/06/04 02:32:59;;;;;;;16.63;14.15;;;18.50;92.80;;;;;;5072858;28;20402;-75
2021/06/04 02:35:34;;;;;;;18.30;14.32;;;18.50;92.80;;;;;;4971555;28;20513;-76
2021/06/04 02:38:15;;;;;;;16.17;13.33;;;18.60;92.60;;;;;;4988226;28;20431;-76
2021/06/04 02:40:56;;;;;;;23.50;15.85;;;18.60;92.10;;;;;;4988526;28;20398;-76
2021/06/04 02:43:31;;;;;;;20.83;17.48;;;18.50;93.20;;;;;;4988851;28;20434;-76
2021/06/04 02:46:11;;;;;;;14.65;12.98;;;18.50;92.90;;;;;;4988980;28;20759;-76
2021/06/04 02:48:37;;;;;;;16.52;14.73;;;18.60;92.00;;;;;;4988569;28;20972;-76
2021/06/04 02:51:24;;;;;;;19.15;15.95;;;18.60;92.50;;;;;;4971105;28;20493;-76
2021/06/04 02:53:59;;;;;;;19.17;14.80;;;18.50;93.10;;;;;;4988996;28;20405;-76
2021/06/04 02:56:35;;;;;;;17.27;14.20;;;18.50;92.80;;;;;;4988164;28;20419;-76
2021/06/04 02:59:08;;;;;;;19.60;15.18;;;18.60;92.50;;;;;;4989029;28;20740;-76
2021/06/04 03:01:36;;;;;;;25.57;20.27;;;18.40;93.00;;;;;;4988423;28;20394;-76
2021/06/04 03:04:03;;;;;;;18.10;14.00;;;18.30;94.30;;;;;;4988623;28;20398;-76
2021/06/04 03:06:34;;;;;;;18.65;14.35;;;18.30;93.80;;;;;;4988118;28;20395;-76
2021/06/04 03:09:00;;;;;;;20.52;17.40;;;18.30;93.20;;;;;;4988254;28;20394;-76
2021/06/04 03:11:30;;;;;;;19.00;16.38;;;18.40;93.40;;;;;;4971119;28;20433;-76
2021/06/04 03:13:57;;;;;;;19.92;14.55;;;18.30;93.60;;;;;;4970785;28;20394;-76
2021/06/04 03:16:25;;;;;;;21.42;16.08;;;18.40;93.00;;;;;;4988028;28;20545;-76
2021/06/04 03:19:00;;;;;;;22.52;16.00;;;18.50;92.60;;;;;;4970455;28;20402;-76
2021/06/04 03:21:33;;;;;;;21.17;15.60;;;18.40;93.20;;;;;;4988136;28;20964;-76
2021/06/04 03:24:00;;;;;;;16.63;14.20;;;18.30;93.50;;;;;;5003181;28;20390;-76
2021/06/04 03:26:29;;;;;;;17.92;15.30;;;18.30;93.40;;;;;;4987997;28;20391;-75
2021/06/04 03:28:57;;;;;;;18.17;13.90;;;18.40;93.40;;;;;;4987977;28;20394;-76
2021/06/04 03:31:25;;;;;;;22.33;17.25;;;18.30;93.60;;;;;;4987977;28;20860;-76
2021/06/04 03:33:51;;;;;;;18.02;15.20;;;18.30;94.10;;;;;;4988141;28;20763;-76
2021/06/04 03:36:21;;;;;;;19.80;15.63;;;18.30;94.10;;;;;;4970496;28;20458;-76
2021/06/04 03:38:48;;;;;;;21.25;15.95;;;18.40;93.60;;;;;;4970329;28;20406;-76
2021/06/04 03:41:16;;;;;;;17.38;14.02;;;18.30;93.90;;;;;;4988273;28;20479;-76
2021/06/04 03:43:42;;;;;;;18.40;14.07;;;18.40;93.10;;;;;;4971428;28;20391;-76
2021/06/04 03:46:08;;;;;;;17.48;14.70;;;18.30;93.70;;;;;;4970590;28;20506;-76
2021/06/04 03:48:35;;;;;;;21.87;17.67;;;18.40;93.50;;;;;;4970401;28;20413;-76
2021/06/04 03:51:06;;;;;;;21.20;16.67;;;18.30;94.30;;;;;;4972523;28;20860;-76
2021/06/04 03:53:32;;;;;;;18.80;15.25;;;18.30;94.50;;;;;;4974418;28;20448;-76
2021/06/04 03:55:58;;;;;;;20.27;15.10;;;18.40;93.60;;;;;;4991482;28;20418;-76
2021/06/04 03:58:25;;;;;;;19.98;16.90;;;18.30;93.80;;;;;;4973477;28;20394;-77
2021/06/04 04:00:55;;;;;;;16.13;13.27;;;18.30;94.30;;;;;;4974260;28;20391;-76
2021/06/04 04:03:23;;;;;;;15.40;12.57;;;18.40;93.40;;;;;;4973943;28;20402;-76
2021/06/04 04:05:49;;;;;;;18.40;14.77;;;18.40;93.00;;;;;;4992289;28;20386;-76
2021/06/04 04:08:19;;;;;;;16.15;13.80;;;18.40;93.10;;;;;;4990921;28;20377;-76
2021/06/04 04:10:45;;;;;;;21.25;15.68;;;18.40;93.50;;;;;;4991233;28;20386;-76
2021/06/04 04:13:14;;;;;;;20.10;16.90;;;18.40;93.60;;;;;;4973986;28;20397;-76
2021/06/04 04:15:40;;;;;;;17.65;14.52;;;18.30;94.40;;;;;;4991722;28;20418;-76
2021/06/04 04:18:06;;;;;;;17.92;14.93;;;18.40;94.00;;;;;;4973460;28;20721;-76
2021/06/04 04:20:47;;;;;;;19.20;16.05;;;18.40;93.70;;;;;;4991576;28;20402;-75
2021/06/04 04:23:16;;;;;;;20.15;16.80;;;18.40;94.00;;;;;;4991272;28;20871;-77
2021/06/04 04:25:43;;;;;;;22.75;17.23;;;18.40;93.90;;;;;;4991295;28;20759;-76
2021/06/04 04:28:13;;;;;;;23.83;19.13;;;18.40;93.90;;;;;;4990977;28;20379;-76
2021/06/04 04:30:39;;;;;;;22.58;17.75;;;18.40;94.40;;;;;;4973702;28;20871;-76
2021/06/04 04:33:06;;;;;;;26.48;19.88;;;18.30;95.00;;;;;;4973810;28;20391;-76
2021/06/04 04:35:34;;;;;;;23.13;19.35;;;18.30;95.10;;;;;;4990931;28;20417;-75
2021/06/04 04:38:00;;;;;;;25.00;19.35;;;18.30;95.30;;;;;;4973198;28;20398;-76
2021/06/04 04:40:27;;;;;;;21.85;17.73;;;18.50;94.40;;;;;;4991029;28;20410;-76
2021/06/04 04:42:54;;;;;;;19.50;15.95;;;18.40;94.30;;;;;;4990829;28;20732;-76
2021/06/04 04:45:21;;;;;;;25.58;18.58;;;18.60;93.10;;;;;;4973243;28;20942;-76
2021/06/04 04:47:47;;;;;;;25.20;19.97;;;18.60;93.70;;;;;;4989830;28;20391;-76
2021/06/04 04:50:13;;;;;;;23.20;18.38;;;18.60;93.90;;;;;;4991155;28;20468;-76
2021/06/04 04:52:39;;;;;;;22.33;17.90;;;18.60;93.50;;;;;;4972878;28;20418;-76
2021/06/04 04:55:07;;;;;;;24.42;20.52;;;18.70;93.50;;;;;;4990648;28;20463;-76
2021/06/04 04:57:33;;;;;;;21.73;17.30;;;18.70;94.20;;;;;;4989894;28;20387;-76
2021/06/04 04:59:59;;;;;;;21.57;16.43;;;18.60;94.10;;;;;;4990691;28;20866;-76
2021/06/04 05:02:25;;;;;;;22.43;16.87;;;18.70;93.80;;;;;;4989411;28;20382;-76
2021/06/04 05:04:51;;;;;;;21.63;17.73;;;18.70;94.00;;;;;;4990526;28;20383;-76
2021/06/04 05:07:16;;;;;;;20.85;16.90;;;18.80;93.60;;;;;;4989830;28;20483;-77
2021/06/04 05:09:42;;;;;;;24.10;19.37;;;18.80;93.00;;;;;;4972978;28;20395;-76
2021/06/04 05:12:08;;;;;;;31.52;24.48;;;18.80;94.80;;;;;;4990062;28;20394;-76
2021/06/04 05:14:35;;;;;;;29.33;22.20;;;18.70;95.70;;;;;;4972764;28;20489;-76
2021/06/04 05:17:01;;;;;;;29.17;24.03;;;18.60;96.00;;;;;;4989452;28;20432;-76
2021/06/04 05:19:27;;;;;;;26.58;21.35;;;18.70;95.60;;;;;;4990108;28;20470;-76
2021/06/04 05:21:53;;;;;;;25.90;21.38;;;18.80;94.20;;;;;;4990198;28;20457;-76
2021/06/04 05:24:19;;;;;;;27.05;21.90;;;18.80;95.30;;;;;;4972395;28;20436;-76
2021/06/04 05:26:44;;;;;;;29.67;22.60;;;18.80;95.30;;;;;;4989741;28;20401;-76
2021/06/04 05:29:10;;;;;;;31.95;24.75;;;18.80;95.40;;;;;;4989822;28;20747;-76
2021/06/04 05:31:38;;;;;;;30.40;21.97;;;18.80;95.40;;;;;;4990010;28;20385;-76
2021/06/04 05:34:05;;;;;;;38.47;26.65;;;18.90;94.50;;;;;;4988944;28;20440;-76
2021/06/04 05:36:32;;;;;;;26.83;22.20;;;19.00;94.90;;;;;;4989613;28;20449;-76
2021/06/04 05:39:07;;;;;;;44.97;32.07;;;19.00;94.20;;;;;;4971567;28;20464;-76
2021/06/04 05:41:33;;;;;;;51.97;33.13;;;19.10;95.50;;;;;;4972130;28;20918;-76
2021/06/04 05:43:58;;;;;;;46.63;29.17;;;19.00;95.50;;;;;;4971728;28;20406;-76
2021/06/04 05:46:24;;;;;;;44.00;30.88;;;19.10;95.60;;;;;;4989079;28;20387;-76
2021/06/04 05:48:50;;;;;;;45.97;30.25;;;19.10;96.00;;;;;;4989454;28;20387;-76
2021/06/04 05:51:20;;;;;;;50.50;34.50;;;19.10;96.10;;;;;;4989408;28;20681;-75
2021/06/04 05:53:49;;;;;;;49.60;32.90;;;19.20;96.00;;;;;;4972102;28;20394;-76
2021/06/04 05:56:17;;;;;;;42.20;30.08;;;19.10;96.10;;;;;;4971701;28;20821;-76
2021/06/04 05:58:44;;;;;;;51.20;34.28;;;19.30;95.90;;;;;;4989116;28;20387;-77
2021/06/04 06:01:14;;;;;;;54.05;34.90;;;19.20;96.10;;;;;;4971758;28;20394;-76
2021/06/04 06:03:39;;;;;;;43.70;30.25;;;19.10;96.20;;;;;;4971982;28;20430;-76
2021/06/04 06:06:07;;;;;;;41.00;29.57;;;19.10;96.50;;;;;;4989261;28;20426;-77
2021/06/04 06:08:33;;;;;;;39.85;28.75;;;19.10;96.10;;;;;;4971355;28;20939;-76
2021/06/04 06:10:59;;;;;;;40.97;27.40;;;19.00;96.00;;;;;;4989117;28;20387;-77
2021/06/04 06:13:25;;;;;;;39.22;29.50;;;19.10;95.90;;;;;;4988953;28;20383;-78
2021/06/04 06:15:52;;;;;;;48.03;32.65;;;19.10;96.00;;;;;;4989150;28;20838;-77
2021/06/04 06:18:18;;;;;;;43.22;29.55;;;19.10;96.00;;;;;;4988485;28;20379;-77
2021/06/04 06:20:44;;;;;;;42.63;29.00;;;19.20;96.10;;;;;;4989309;28;20418;-77
2021/06/04 06:23:13;;;;;;;39.42;29.02;;;19.30;95.90;;;;;;4971351;28;20720;-77
2021/06/04 06:25:42;;;;;;;43.67;28.85;;;19.30;95.80;;;;;;4971757;28;20430;-77
2021/06/04 06:28:11;;;;;;;45.65;31.85;;;19.30;95.70;;;;;;4988150;28;20390;-77
2021/06/04 06:30:37;;;;;;;45.65;30.92;;;19.30;95.70;;;;;;4971830;28;20895;-77
2021/06/04 06:33:04;;;;;;;44.17;30.63;;;19.40;95.40;;;;;;4988843;28;20395;-77
2021/06/04 06:35:43;;;;;;;49.03;30.23;;;19.40;95.80;;;;;;4971318;28;20415;-77
2021/06/04 06:38:09;;;;;;;51.42;32.45;;;19.40;95.90;;;;;;4970934;28;20948;-77
2021/06/04 06:40:36;;;;;;;45.05;31.20;;;19.50;95.50;;;;;;4989008;28;20755;-78
2021/06/04 06:43:03;;;;;;;48.03;29.70;;;19.40;94.40;;;;;;4988763;28;20399;-77
2021/06/04 06:45:29;;;;;;;47.83;32.03;;;19.40;94.80;;;;;;4971301;28;20395;-77
2021/06/04 06:47:55;;;;;;;44.50;29.40;;;19.40;94.70;;;;;;4988536;28;20387;-78
2021/06/04 06:50:24;;;;;;;49.67;33.65;;;19.60;93.80;;;;;;4988975;28;20390;-77
2021/06/04 06:52:51;;;;;;;53.25;34.20;;;19.80;94.70;;;;;;4988863;28;20379;-78
2021/06/04 06:55:17;;;;;;;44.80;30.40;;;19.80;94.20;;;;;;4988470;28;20390;-78
2021/06/04 06:57:42;;;;;;;40.15;27.33;;;19.90;94.20;;;;;;4988528;28;20730;-77
2021/06/04 07:00:17;;;;;;;51.67;34.40;;;20.00;93.60;;;;;;4988501;28;20401;-78
2021/06/04 07:02:42;;;;;;;56.00;35.30;;;20.00;93.70;;;;;;4971051;28;20960;-77
2021/06/04 07:05:09;;;;;;;58.37;37.73;;;20.10;93.40;;;;;;4971117;28;20395;-77
2021/06/04 07:07:36;;;;;;;53.53;36.67;;;19.90;93.70;;;;;;4970894;28;20405;-78
2021/06/04 07:10:03;;;;;;;54.27;37.10;;;19.90;93.70;;;;;;4971096;28;20391;-78
2021/06/04 07:12:29;;;;;;;65.32;41.25;;;19.90;93.50;;;;;;4970676;28;20398;-78
2021/06/04 07:14:54;;;;;;;59.80;40.37;;;20.10;93.80;;;;;;4971303;28;20406;-78
2021/06/04 07:17:22;;;;;;;67.07;44.10;;;20.20;93.80;;;;;;4988072;28;20487;-78
2021/06/04 07:19:47;;;;;;;66.35;45.17;;;20.00;92.70;;;;;;4988535;28;20387;-79
2021/06/04 07:22:13;;;;;;;74.47;47.03;;;20.20;92.30;;;;;;4970821;28;20401;-79
2021/06/04 07:24:39;;;;;;;74.82;47.72;;;20.20;93.10;;;;;;4988135;28;20390;-78
2021/06/04 07:27:04;;;;;;;73.50;48.93;;;20.20;92.90;;;;;;4987614;28;20387;-79
2021/06/04 07:29:31;;;;;;;74.25;46.83;;;20.30;94.00;;;;;;4988264;28;20391;-79
2021/06/04 07:31:57;;;;;;;71.07;47.53;;;20.50;93.20;;;;;;4987553;28;20456;-78
2021/06/04 07:34:25;;;;;;;77.55;47.22;;;20.30;93.40;;;;;;4988025;28;20406;-78
2021/06/04 07:36:54;;;;;;;68.00;45.97;;;20.30;93.40;;;;;;4987877;28;20414;-79
2021/06/04 07:39:24;;;;;;;66.75;45.88;;;20.30;94.30;;;;;;4987546;28;20402;-79
2021/06/04 07:41:50;;;;;;;70.78;46.72;;;20.30;93.20;;;;;;4988151;28;20459;-79
2021/06/04 07:44:16;;;;;;;76.43;48.58;;;20.40;92.20;;;;;;4970352;28;20423;-79
2021/06/04 07:46:43;;;;;;;72.43;47.45;;;20.40;92.60;;;;;;4970415;28;20789;-79
2021/06/04 07:49:09;;;;;;;76.47;47.70;;;20.50;93.90;;;;;;4987651;28;20414;-79
2021/06/04 07:51:40;;;;;;;69.20;46.97;;;20.40;92.40;;;;;;4987985;28;20394;-80
2021/06/04 07:54:07;;;;;;;75.78;49.28;;;20.40;92.00;;;;;;4987778;28;20456;-80
2021/06/04 07:56:32;;;;;;;78.47;50.85;;;20.30;92.30;;;;;;4987692;28;20509;-79
2021/06/04 07:58:59;;;;;;;69.83;48.70;;;20.60;91.70;;;;;;4987478;28;20473;-79
2021/06/04 08:01:25;;;;;;;71.38;48.00;;;20.60;91.00;;;;;;4970103;28;20402;-80
2021/06/04 08:03:51;;;;;;;74.22;48.70;;;20.50;91.90;;;;;;4970091;28;20413;-80
2021/06/04 08:06:19;;;;;;;69.22;45.53;;;20.60;92.20;;;;;;4970163;28;20399;-80
2021/06/04 08:08:45;;;;;;;68.60;47.25;;;20.80;91.40;;;;;;4987439;28;20387;-80
2021/06/04 08:11:19;;;;;;;70.10;45.83;;;20.90;91.40;;;;;;4987820;28;20387;-80
2021/06/04 08:13:46;;;;;;;70.30;46.67;;;20.90;89.50;;;;;;4970591;28;20402;-80
2021/06/04 08:16:12;;;;;;;70.25;48.85;;;20.90;91.10;;;;;;4969937;28;20451;-80
2021/06/04 08:18:39;;;;;;;66.93;46.08;;;21.20;89.50;;;;;;4987526;28;20815;-80
2021/06/04 08:21:09;;;;;;;66.90;44.92;;;21.10;88.40;;;;;;4969818;28;20426;-80
2021/06/04 08:23:37;;;;;;;65.75;44.53;;;21.10;87.30;;;;;;4970423;28;20481;-80
2021/06/04 08:26:06;;;;;;;66.53;44.13;;;21.30;87.40;;;;;;4969954;28;20484;-80
2021/06/04 08:28:32;;;;;;;69.30;42.33;;;21.20;87.20;;;;;;4987021;28;20453;-79
2021/06/04 08:30:58;;;;;;;62.80;41.58;;;21.60;86.30;;;;;;4987504;28;20720;-80
2021/06/04 08:33:29;;;;;;;61.88;41.60;;;21.70;85.00;;;;;;4969921;28;20387;-80
2021/06/04 08:35:57;;;;;;;60.72;40.90;;;21.60;86.10;;;;;;4987774;28;20415;-79
2021/06/04 08:38:23;;;;;;;61.97;39.28;;;21.80;85.60;;;;;;4989250;28;20389;-80
2021/06/04 08:40:50;;;;;;;61.47;37.13;;;21.90;86.10;;;;;;4973490;28;20395;-79
2021/06/04 08:43:24;;;;;;;51.92;35.80;;;22.20;83.40;;;;;;4990765;28;20721;-79
2021/06/04 08:46:24;;;;;;;53.70;35.67;;;22.20;84.10;;;;;;4990767;28;20507;-79
2021/06/04 08:49:05;;;;;;;50.53;34.13;;;22.10;81.30;;;;;;4965053;28;20731;-79
2021/06/04 08:51:50;;;;;;;54.70;34.75;;;21.90;82.80;;;;;;4972766;28;20403;-80
2021/06/04 08:54:32;;;;;;;54.42;39.03;;;21.80;84.10;;;;;;4990593;28;20387;-79
2021/06/04 08:57:31;;;;;;;46.43;33.43;;;21.50;85.80;;;;;;4972559;28;20415;-79
2021/06/04 08:59:57;;;;;;;50.03;33.85;;;21.60;82.10;;;;;;4990376;28;20417;-80
2021/06/04 09:02:36;;;;;;;48.60;34.33;;;21.60;82.20;;;;;;4990224;28;20382;-80
2021/06/04 09:05:18;;;;;;;44.40;32.20;;;21.50;80.70;;;;;;4972745;28;20390;-79
2021/06/04 09:07:47;;;;;;;43.83;32.05;;;21.60;83.90;;;;;;4972840;28;20439;-79
2021/06/04 09:10:34;;;;;;;45.15;31.05;;;21.70;81.00;;;;;;4990128;28;20765;-79
2021/06/04 09:13:12;;;;;;;48.22;31.63;;;22.00;79.80;;;;;;4990716;28;20387;-79
2021/06/04 09:15:40;;;;;;;49.25;34.53;;;22.30;80.20;;;;;;4973044;28;20415;-79
2021/06/04 09:18:24;;;;;;;49.63;34.42;;;22.50;81.80;;;;;;4972450;28;20402;-79
2021/06/04 09:21:03;;;;;;;51.13;36.00;;;22.20;77.90;;;;;;4973081;28;20859;-79
2021/06/04 09:23:35;;;;;;;44.20;31.48;;;22.40;77.40;;;;;;4972796;28;20398;-79
2021/06/04 09:26:03;;;;;;;43.57;31.10;;;22.80;79.00;;;;;;4972928;28;20759;-79
2021/06/04 09:28:34;;;;;;;46.03;32.53;;;22.70;75.40;;;;;;4989758;28;20410;-79
2021/06/04 09:31:42;;;;;;;51.60;35.00;;;22.80;75.60;;;;;;4990049;28;20414;-80
2021/06/04 09:34:13;;;;;;;41.33;29.85;;;22.60;79.00;;;;;;4992316;28;20525;-81
2021/06/04 09:36:49;;;;;;;46.97;31.92;;;22.20;77.80;;;;;;4972022;28;20414;-79
2021/06/04 09:39:33;;;;;;;42.08;30.05;;;22.10;79.40;;;;;;4972636;28;20404;-79
2021/06/04 09:42:14;;;;;;;35.72;25.92;;;22.50;75.10;;;;;;4990009;28;20395;-79
2021/06/04 09:45:11;;;;;;;34.35;24.33;;;22.70;75.20;;;;;;4990062;28;20382;-80
2021/06/04 09:47:58;;;;;;;34.47;26.65;;;23.00;72.60;;;;;;4989249;28;20392;-79
2021/06/04 09:50:42;;;;;;;36.55;24.45;;;23.30;74.30;;;;;;4972150;28;20399;-79
2021/06/04 09:53:14;;;;;;;30.25;22.83;;;23.50;71.40;;;;;;4972335;28;20490;-79
2021/06/04 09:55:45;;;;;;;30.17;21.02;;;23.40;67.50;;;;;;4989243;28;20501;-79
2021/06/04 09:58:14;;;;;;;26.95;20.42;;;23.70;72.60;;;;;;4971629;28;20387;-81
2021/06/04 10:00:59;;;;;;;29.08;19.02;;;24.20;73.70;;;;;;4989641;28;20391;-79
2021/06/04 10:03:36;;;;;;;29.15;19.90;;;23.50;71.00;;;;;;4989429;28;20513;-80
2021/06/04 10:06:07;;;;;;;27.98;18.88;;;23.40;70.80;;;;;;4989599;28;20477;-79
2021/06/04 10:08:59;;;;;;;32.85;19.35;;;23.20;74.40;;;;;;5073065;28;20433;-79
2021/06/04 10:11:29;;;;;;;29.88;21.88;;;23.10;75.20;;;;;;4971756;28;20770;-80
2021/06/04 10:14:14;;;;;;;25.52;18.48;;;22.70;73.20;;;;;;4989220;28;20402;-79
2021/06/04 10:19:35;;;;;;;30.27;21.73;;;23.20;71.90;;;;;;4989562;28;20807;-80
2021/06/04 10:22:25;;;;;;;27.83;19.95;;;23.20;71.30;;;;;;4971420;28;20409;-79
2021/06/04 10:24:59;;;;;;;26.33;21.02;;;23.30;74.30;;;;;;4989336;28;20383;-79
2021/06/04 10:27:25;;;;;;;30.73;20.25;;;23.50;69.70;;;;;;5072259;28;20402;-79
2021/06/04 10:30:12;;;;;;;28.17;19.90;;;23.30;69.10;;;;;;5072884;28;20486;-79
2021/06/04 10:32:54;;;;;;;29.65;20.20;;;23.00;71.20;;;;;;4971694;28;20429;-79
2021/06/04 10:35:50;;;;;;;23.33;17.48;;;23.40;70.10;;;;;;4988686;28;20895;-79
2021/06/04 10:38:40;;;;;;;22.57;17.60;;;23.80;69.30;;;;;;4988600;28;20790;-79
2021/06/04 10:41:11;;;;;;;23.67;16.55;;;23.90;68.80;;;;;;4988979;28;20395;-79
2021/06/04 10:43:51;;;;;;;24.95;15.98;;;24.20;68.40;;;;;;4988702;28;20390;-78
2021/06/04 10:46:29;;;;;;;22.20;17.77;;;23.90;69.10;;;;;;4988962;28;20394;-80
2021/06/04 10:49:16;;;;;;;25.73;17.63;;;23.90;67.80;;;;;;4989118;28;20453;-78
2021/06/04 10:52:22;;;;;;;25.80;17.23;;;24.10;67.30;;;;;;4971255;28;20867;-79
2021/06/04 10:55:00;;;;;;;20.17;15.48;;;24.10;67.40;;;;;;4997891;28;20406;-80
2021/06/04 10:57:44;;;;;;;23.67;17.05;;;24.00;68.60;;;;;;4970726;28;20426;-79
2021/06/04 11:00:33;;;;;;;22.50;16.38;;;23.80;70.10;;;;;;4970697;28;20402;-79
2021/06/04 11:03:07;;;;;;;23.80;18.05;;;24.10;69.30;;;;;;4991582;28;20473;-79
2021/06/04 11:05:55;;;;;;;23.13;15.73;;;24.30;63.10;;;;;;4989185;28;20388;-79
2021/06/04 11:09:01;;;;;;;25.00;16.80;;;24.40;68.10;;;;;;4988831;28;20481;-78
2021/06/04 11:11:29;;;;;;;24.85;16.20;;;24.20;64.00;;;;;;4988645;28;20420;-79
2021/06/04 11:14:02;;;;;;;24.63;17.13;;;24.50;64.20;;;;;;5072934;28;20410;-79
2021/06/04 11:16:36;;;;;;;22.98;14.35;;;24.10;65.10;;;;;;4988277;28;20884;-79
2021/06/04 11:19:16;;;;;;;18.85;13.13;;;24.80;71.10;;;;;;4988876;28;20402;-79
2021/06/04 11:21:55;;;;;;;21.20;15.90;;;25.10;67.90;;;;;;4971045;28;20429;-80
2021/06/04 11:24:35;;;;;;;21.00;13.65;;;25.50;62.80;;;;;;4971120;28;20387;-79
2021/06/04 11:27:01;;;;;;;22.30;13.65;;;25.40;65.70;;;;;;4970887;28;20755;-78
2021/06/04 11:29:33;;;;;;;23.90;15.77;;;25.40;67.40;;;;;;4971082;28;20399;-79
2021/06/04 11:32:13;;;;;;;19.85;14.77;;;25.20;65.10;;;;;;4970995;28;20401;-78
2021/06/04 11:34:55;;;;;;;21.55;14.70;;;25.00;64.10;;;;;;4969596;28;20394;-80
2021/06/04 11:37:56;;;;;;;20.58;13.95;;;24.90;63.20;;;;;;4970248;28;20418;-80
2021/06/04 11:40:29;;;;;;;20.23;14.30;;;25.00;65.50;;;;;;4992211;28;20421;-79
2021/06/04 11:43:01;;;;;;;23.05;14.50;;;25.30;66.10;;;;;;4970511;28;20395;-79
2021/06/04 11:45:29;;;;;;;19.50;13.57;;;25.20;66.70;;;;;;4988301;28;20383;-79
2021/06/04 11:47:54;;;;;;;20.98;14.32;;;25.70;66.60;;;;;;4969885;28;20455;-79
2021/06/04 11:50:26;;;;;;;20.57;13.37;;;25.90;65.00;;;;;;4988472;28;20856;-79
2021/06/04 11:52:57;;;;;;;20.67;13.77;;;26.10;63.40;;;;;;5071756;28;20398;-80
2021/06/04 11:55:26;;;;;;;24.95;14.95;;;26.10;63.80;;;;;;4987888;28;20387;-80
2021/06/04 11:57:59;;;;;;;25.90;14.98;;;25.60;62.50;;;;;;5071414;28;20941;-80
2021/06/04 12:00:37;;;;;;;21.10;15.50;;;25.70;61.90;;;;;;4987903;28;20406;-79
2021/06/04 12:03:05;;;;;;;20.70;14.25;;;25.80;58.20;;;;;;5071955;28;20887;-79
2021/06/04 12:05:45;;;;;;;18.87;12.37;;;25.80;62.70;;;;;;5071820;28;20478;-80
2021/06/04 12:08:10;;;;;;;22.03;14.33;;;25.80;60.10;;;;;;4970226;28;20407;-79
2021/06/04 12:10:57;;;;;;;17.60;12.70;;;25.50;59.50;;;;;;4987668;28;20390;-79
2021/06/04 12:13:47;;;;;;;21.00;14.93;;;25.40;61.20;;;;;;5075597;28;20982;-79
2021/06/04 12:16:27;;;;;;;24.58;15.13;;;25.10;61.30;;;;;;4991175;28;20422;-79
2021/06/04 12:19:36;;;;;;;20.52;14.77;;;24.70;63.10;;;;;;4991097;28;20770;-79
2021/06/04 12:22:30;;;;;;;23.85;16.40;;;24.40;62.80;;;;;;4973557;28;20409;-79
2021/06/04 12:24:57;;;;;;;24.67;14.52;;;24.40;62.00;;;;;;4990782;28;20956;-80
2021/06/04 12:27:29;;;;;;;21.58;14.02;;;25.00;60.30;;;;;;4972984;28;20825;-80
2021/06/04 12:29:54;;;;;;;19.77;14.18;;;25.10;60.60;;;;;;4991240;28;20401;-79
2021/06/04 12:32:26;;;;;;;21.00;13.00;;;25.40;58.40;;;;;;4991085;28;20751;-80
2021/06/04 12:35:00;;;;;;;24.60;14.10;;;25.30;63.40;;;;;;5075533;28;20879;-79
2021/06/04 12:37:30;;;;;;;19.98;13.82;;;25.30;60.70;;;;;;4972932;28;20411;-80
2021/06/04 12:40:08;;;;;;;19.90;12.47;;;25.30;61.80;;;;;;4991159;28;20402;-82
2021/06/04 12:42:36;;;;;;;17.20;11.55;;;25.80;61.90;;;;;;4990702;28;20391;-80
2021/06/04 12:45:23;;;;;;;17.63;12.02;;;26.00;62.00;;;;;;5074910;28;20398;-80
2021/06/04 12:48:18;;;;;;;19.55;13.15;;;26.20;56.40;;;;;;4990341;28;20387;-80
2021/06/04 12:50:45;;;;;;;21.98;13.10;;;25.80;56.50;;;;;;4990644;28;20464;-80
2021/06/04 12:53:39;;;;;;;15.15;10.57;;;26.10;57.30;;;;;;4990977;28;20387;-79
2021/06/04 12:56:07;;;;;;;17.67;11.50;;;26.00;62.70;;;;;;4990866;28;20955;-79
2021/06/04 12:58:42;;;;;;;18.77;12.05;;;26.40;55.80;;;;;;4990332;28;20480;-79